createdAt,value
2019-02-21T00:02:02.139Z,20.53
2019-02-21T00:04:32.917Z,20.12
2019-02-21T00:07:03.695Z,20.87
2019-02-21T00:09:34.521Z,21.80
2019-02-21T00:12:05.273Z,21.60
2019-02-21T00:14:36.235Z,22.77
2019-02-21T00:17:07.012Z,20.60
2019-02-21T00:19:37.772Z,22.17
2019-02-21T00:22:08.535Z,21.47
2019-02-21T00:24:40.062Z,19.23
2019-02-21T00:27:10.877Z,20.72
2019-02-21T00:29:41.633Z,20.20
2019-02-21T00:32:12.399Z,20.20
2019-02-21T00:34:43.171Z,22.27
2019-02-21T00:37:13.934Z,20.63
2019-02-21T00:39:44.702Z,23.17
2019-02-21T00:42:15.467Z,21.17
2019-02-21T00:44:46.222Z,22.07
2019-02-21T00:47:16.995Z,20.60
2019-02-21T00:49:47.749Z,21.53
2019-02-21T00:52:18.580Z,20.63
2019-02-21T00:54:49.355Z,19.80
2019-02-21T00:57:20.120Z,18.90
2019-02-21T00:59:51.093Z,20.97
2019-02-21T01:02:21.838Z,21.97
2019-02-21T01:04:52.600Z,20.23
2019-02-21T01:07:23.366Z,20.63
2019-02-21T01:09:54.124Z,20.30
2019-02-21T01:12:24.994Z,19.37
2019-02-21T01:14:55.755Z,21.20
2019-02-21T01:17:26.557Z,20.57
2019-02-21T01:19:57.319Z,21.10
2019-02-21T01:22:28.088Z,21.83
2019-02-21T01:24:58.839Z,21.70
2019-02-21T01:27:29.619Z,21.93
2019-02-21T01:30:00.540Z,22.07
2019-02-21T01:32:31.370Z,21.90
2019-02-21T01:35:02.832Z,21.60
2019-02-21T01:37:33.607Z,20.27
2019-02-21T01:40:06.807Z,21.17
2019-02-21T01:42:37.554Z,22.35
2019-02-21T01:45:08.777Z,21.97
2019-02-21T01:47:39.558Z,20.45
2019-02-21T01:50:10.345Z,21.97
2019-02-21T01:52:41.115Z,21.77
2019-02-21T01:55:11.890Z,21.33
2019-02-21T01:57:42.656Z,20.80
2019-02-21T02:00:13.722Z,21.50
2019-02-21T02:02:44.603Z,22.13
2019-02-21T02:05:15.358Z,22.40
2019-02-21T02:07:46.154Z,21.50
2019-02-21T02:10:16.919Z,23.57
2019-02-21T02:12:47.686Z,21.73
2019-02-21T02:15:18.555Z,21.87
2019-02-21T02:17:49.329Z,21.80
2019-02-21T02:20:20.107Z,23.50
2019-02-21T02:22:51.215Z,21.70
2019-02-21T02:25:21.979Z,23.90
2019-02-21T02:27:52.751Z,21.37
2019-02-21T02:30:23.503Z,21.87
2019-02-21T02:32:54.282Z,23.23
2019-02-21T02:35:25.035Z,22.50
2019-02-21T02:37:55.820Z,22.07
2019-02-21T02:40:26.566Z,21.23
2019-02-21T02:42:57.349Z,22.47
2019-02-21T02:45:28.105Z,22.27
2019-02-21T02:47:58.917Z,22.60
2019-02-21T02:50:29.679Z,20.57
2019-02-21T02:53:00.543Z,21.57
2019-02-21T02:55:31.380Z,21.60
2019-02-21T02:58:02.338Z,21.33
2019-02-21T03:00:33.108Z,20.33
2019-02-21T03:03:03.882Z,21.50
2019-02-21T03:05:34.646Z,23.37
2019-02-21T03:08:05.525Z,19.87
2019-02-21T03:10:36.278Z,20.73
2019-02-21T03:13:07.066Z,22.80
2019-02-21T03:15:37.814Z,19.00
2019-02-21T03:18:08.592Z,19.90
2019-02-21T03:20:39.384Z,19.90
2019-02-21T03:23:10.167Z,20.73
2019-02-21T03:25:40.919Z,20.50
2019-02-21T03:28:11.692Z,19.47
2019-02-21T03:30:42.459Z,18.80
2019-02-21T03:33:13.433Z,19.23
2019-02-21T03:35:44.213Z,18.23
2019-02-21T03:38:14.994Z,19.40
2019-02-21T03:40:45.720Z,19.70
2019-02-21T03:43:16.491Z,16.60
2019-02-21T03:45:47.255Z,19.30
2019-02-21T03:48:18.034Z,20.07
2019-02-21T03:50:48.791Z,18.37
2019-02-21T03:53:19.558Z,22.50
2019-02-21T03:55:50.340Z,20.90
2019-02-21T03:58:21.212Z,20.60
2019-02-21T04:00:51.994Z,21.43
2019-02-21T04:03:22.743Z,19.73
2019-02-21T04:05:53.610Z,19.43
2019-02-21T04:08:24.385Z,17.57
2019-02-21T04:10:55.213Z,18.47
2019-02-21T04:13:25.962Z,19.47
2019-02-21T04:15:56.838Z,20.07
2019-02-21T04:18:27.607Z,18.80
2019-02-21T04:20:58.359Z,22.20
2019-02-21T04:23:29.124Z,21.13
2019-02-21T04:25:59.882Z,18.93
2019-02-21T04:28:30.679Z,19.83
2019-02-21T04:31:01.421Z,19.33
2019-02-21T04:33:34.249Z,23.03
2019-02-21T04:36:04.870Z,19.25
2019-02-21T04:38:35.626Z,19.53
2019-02-21T04:41:06.411Z,20.57
2019-02-21T04:43:37.181Z,20.80
2019-02-21T04:46:07.943Z,17.83
2019-02-21T04:48:38.715Z,18.77
2019-02-21T04:51:09.494Z,17.90
2019-02-21T04:53:40.247Z,18.00
2019-02-21T04:56:11.022Z,18.67
2019-02-21T04:58:41.792Z,19.23
2019-02-21T05:01:12.552Z,18.90
2019-02-21T05:03:43.320Z,20.00
2019-02-21T05:06:14.076Z,19.50
2019-02-21T05:08:44.842Z,20.10
2019-02-21T05:11:15.604Z,19.20
2019-02-21T05:13:46.379Z,20.53
2019-02-21T05:16:17.142Z,20.17
2019-02-21T05:18:47.914Z,19.60
2019-02-21T05:21:18.669Z,18.40
2019-02-21T05:23:49.442Z,17.00
2019-02-21T05:26:22.111Z,19.90
2019-02-21T05:28:52.879Z,19.77
2019-02-21T05:31:43.791Z,18.67
2019-02-21T05:34:25.616Z,19.30
2019-02-21T05:37:16.390Z,20.80
2019-02-21T05:39:49.075Z,20.20
2019-02-21T05:42:39.897Z,20.82
2019-02-21T05:45:30.785Z,19.05
2019-02-21T05:48:03.396Z,19.48
2019-02-21T05:50:36.072Z,18.70
2019-02-21T05:53:25.392Z,19.37
2019-02-21T05:56:03.875Z,18.02
2019-02-21T05:58:42.104Z,20.25
2019-02-21T06:01:31.502Z,15.60
2019-02-21T06:04:06.962Z,17.17
2019-02-21T06:06:56.008Z,18.75
2019-02-21T06:09:28.683Z,17.48
2019-02-21T06:12:01.404Z,20.12
2019-02-21T06:14:52.420Z,20.17
2019-02-21T06:17:27.889Z,16.75
2019-02-21T06:20:12.371Z,19.73
2019-02-21T06:22:50.827Z,22.75
2019-02-21T06:25:29.740Z,20.50
2019-02-21T06:28:03.701Z,21.40
2019-02-21T06:30:36.391Z,22.05
2019-02-21T06:33:07.157Z,19.45
2019-02-21T06:35:37.922Z,21.43
2019-02-21T06:38:08.687Z,24.63
2019-02-21T06:40:39.451Z,29.53
2019-02-21T06:43:10.220Z,18.97
2019-02-21T06:45:41.051Z,23.27
2019-02-21T06:48:11.825Z,25.30
2019-02-21T06:50:42.616Z,22.80
2019-02-21T06:53:13.383Z,24.93
2019-02-21T06:55:44.161Z,24.97
2019-02-21T06:58:14.937Z,24.30
2019-02-21T07:00:46.324Z,24.03
2019-02-21T07:03:17.192Z,21.60
2019-02-21T07:05:47.954Z,23.40
2019-02-21T07:08:18.728Z,25.53
2019-02-21T07:10:49.506Z,23.57
2019-02-21T07:13:26.456Z,24.27
2019-02-21T07:15:52.934Z,23.42
2019-02-21T07:18:23.696Z,25.50
2019-02-21T07:20:54.465Z,23.47
2019-02-21T07:23:26.028Z,25.20
2019-02-21T07:25:58.201Z,26.02
2019-02-21T07:28:29.588Z,25.35
2019-02-21T07:31:00.366Z,25.95
2019-02-21T07:33:31.135Z,25.37
2019-02-21T07:36:01.915Z,26.83
2019-02-21T07:38:32.669Z,25.90
2019-02-21T07:41:03.503Z,27.37
2019-02-21T07:43:34.382Z,30.10
2019-02-21T07:46:06.958Z,26.50
2019-02-21T07:48:38.107Z,26.93
2019-02-21T07:51:08.888Z,28.55
2019-02-21T07:53:39.649Z,26.97
2019-02-21T07:56:10.411Z,26.90
2019-02-21T07:58:41.184Z,26.70
2019-02-21T08:01:11.970Z,27.13
2019-02-21T08:03:45.951Z,30.30
2019-02-21T08:06:15.425Z,33.42
2019-02-21T08:08:46.183Z,34.10
2019-02-21T08:11:16.944Z,35.87
2019-02-21T08:13:47.826Z,38.87
2019-02-21T08:16:18.586Z,35.00
2019-02-21T08:18:49.372Z,26.43
2019-02-21T08:21:20.132Z,22.10
2019-02-21T08:23:51.143Z,20.33
2019-02-21T08:26:21.970Z,19.40
2019-02-21T08:28:52.739Z,19.90
2019-02-21T08:31:23.501Z,19.43
2019-02-21T08:33:58.667Z,18.40
2019-02-21T08:36:28.845Z,18.35
2019-02-21T08:38:59.618Z,18.17
2019-02-21T08:41:30.390Z,17.20
2019-02-21T08:44:01.149Z,16.67
2019-02-21T08:46:31.908Z,17.00
2019-02-21T08:49:02.670Z,18.10
2019-02-21T08:51:33.429Z,18.03
2019-02-21T08:54:05.663Z,18.20
2019-02-21T08:56:36.933Z,17.62
2019-02-21T08:59:07.700Z,17.10
2019-02-21T09:01:38.460Z,17.90
2019-02-21T09:04:13.568Z,16.83
2019-02-21T09:06:41.885Z,17.35
2019-02-21T09:09:12.656Z,17.73
2019-02-21T09:11:43.414Z,17.53
2019-02-21T09:14:14.187Z,17.83
2019-02-21T09:16:44.943Z,17.00
2019-02-21T09:19:15.720Z,16.67
2019-02-21T09:21:46.492Z,17.30
2019-02-21T09:24:35.246Z,15.50
2019-02-21T09:26:49.928Z,17.12
2019-02-21T09:29:20.712Z,17.30
2019-02-21T09:31:51.477Z,16.10
2019-02-21T09:34:22.243Z,18.87
2019-02-21T09:36:53.039Z,16.37
2019-02-21T09:39:23.830Z,18.13
2019-02-21T09:41:54.592Z,17.53
2019-02-21T09:44:27.400Z,15.70
2019-02-21T09:46:58.352Z,16.53
2019-02-21T09:49:29.147Z,18.17
2019-02-21T09:51:59.894Z,16.00
2019-02-21T09:54:30.693Z,15.20
2019-02-21T09:57:12.545Z,16.70
2019-02-21T09:59:34.156Z,17.10
2019-02-21T10:02:04.957Z,16.40
2019-02-21T10:04:35.750Z,16.57
2019-02-21T10:07:06.516Z,16.97
2019-02-21T10:09:37.271Z,16.60
2019-02-21T10:12:08.036Z,16.17
2019-02-21T10:14:38.801Z,17.27
2019-02-21T10:17:09.556Z,17.10
2019-02-21T10:19:40.319Z,16.27
2019-02-21T10:22:11.205Z,15.80
2019-02-21T10:24:41.968Z,16.97
2019-02-21T10:27:12.941Z,16.80
2019-02-21T10:29:43.701Z,15.63
2019-02-21T10:32:14.474Z,16.10
2019-02-21T10:34:45.241Z,17.20
2019-02-21T10:37:16.013Z,15.50
2019-02-21T10:39:47.882Z,15.83
2019-02-21T10:42:18.763Z,15.13
2019-02-21T10:44:49.519Z,16.00
2019-02-21T10:47:20.293Z,16.30
2019-02-21T10:49:51.067Z,15.27
2019-02-21T10:52:21.828Z,17.03
2019-02-21T10:54:52.593Z,16.70
2019-02-21T10:57:23.369Z,15.83
2019-02-21T10:59:54.125Z,14.47
2019-02-21T11:02:25.000Z,17.17
2019-02-21T11:04:55.766Z,15.60
2019-02-21T11:07:26.877Z,16.50
2019-02-21T11:09:57.692Z,17.03
2019-02-21T11:12:28.511Z,14.97
2019-02-21T11:14:59.281Z,16.70
2019-02-21T11:17:30.047Z,16.47
2019-02-21T11:20:00.807Z,15.60
2019-02-21T11:22:31.584Z,17.40
2019-02-21T11:25:03.935Z,17.10
2019-02-21T11:27:34.707Z,18.50
2019-02-21T11:30:13.664Z,17.40
2019-02-21T11:32:44.534Z,17.33
2019-02-21T11:35:15.391Z,16.23
2019-02-21T11:37:47.404Z,15.60
2019-02-21T11:40:18.346Z,15.93
2019-02-21T11:42:49.157Z,16.87
2019-02-21T11:45:19.980Z,17.17
2019-02-21T11:47:50.800Z,15.97
2019-02-21T11:50:21.635Z,16.57
2019-02-21T11:52:52.410Z,14.63
2019-02-21T11:55:24.479Z,14.13
2019-02-21T11:57:55.285Z,12.63
2019-02-21T12:00:28.834Z,13.00
2019-02-21T12:02:59.621Z,14.00
2019-02-21T12:05:31.942Z,14.30
2019-02-21T12:08:09.107Z,14.03
2019-02-21T12:10:39.870Z,14.50
2019-02-21T12:13:10.666Z,13.30
2019-02-21T12:15:41.422Z,13.10
2019-02-21T12:18:12.212Z,13.27
2019-02-21T12:20:43.256Z,13.20
2019-02-21T12:23:17.676Z,13.50
2019-02-21T12:25:47.578Z,11.97
2019-02-21T12:28:18.366Z,10.33
2019-02-21T12:30:49.130Z,14.43
2019-02-21T12:33:19.900Z,13.00
2019-02-21T12:35:50.654Z,15.77
2019-02-21T12:38:21.462Z,14.20
2019-02-21T12:40:52.201Z,14.37
2019-02-21T12:43:22.969Z,12.67
2019-02-21T12:45:57.466Z,13.70
2019-02-21T12:48:28.233Z,14.83
2019-02-21T12:50:58.989Z,13.53
2019-02-21T12:53:29.770Z,14.03
2019-02-21T12:56:00.540Z,14.87
2019-02-21T12:58:31.313Z,13.60
2019-02-21T13:01:02.072Z,14.00
2019-02-21T13:03:32.885Z,13.30
2019-02-21T13:06:03.656Z,12.30
2019-02-21T13:08:34.472Z,13.07
2019-02-21T13:11:05.295Z,12.33
2019-02-21T13:13:36.147Z,13.10
2019-02-21T13:16:06.909Z,12.67
2019-02-21T13:18:37.692Z,12.33
2019-02-21T13:21:08.458Z,13.30
2019-02-21T13:23:39.234Z,12.70
2019-02-21T13:26:09.986Z,13.03
2019-02-21T13:28:40.869Z,13.90
2019-02-21T13:31:11.657Z,12.83
2019-02-21T13:33:42.440Z,14.07
2019-02-21T13:36:13.187Z,14.07
2019-02-21T13:38:43.963Z,13.73
2019-02-21T13:41:14.735Z,12.07
2019-02-21T13:43:45.502Z,12.40
2019-02-21T13:46:16.266Z,12.80
2019-02-21T13:48:47.057Z,12.93
2019-02-21T13:51:17.789Z,11.67
2019-02-21T13:53:48.560Z,12.33
2019-02-21T13:56:19.334Z,14.00
2019-02-21T13:58:50.101Z,12.00
2019-02-21T14:01:20.877Z,13.93
2019-02-21T14:03:51.642Z,14.13
2019-02-21T14:06:22.429Z,12.47
2019-02-21T14:08:53.177Z,13.53
2019-02-21T14:11:23.939Z,13.50
2019-02-21T14:13:54.712Z,12.97
2019-02-21T14:16:25.469Z,14.90
2019-02-21T14:18:56.258Z,12.63
2019-02-21T14:21:27.022Z,12.47
2019-02-21T14:23:57.795Z,10.83
2019-02-21T14:26:29.038Z,9.43
2019-02-21T14:28:59.883Z,9.40
2019-02-21T14:31:33.466Z,8.70
2019-02-21T14:34:03.324Z,9.27
2019-02-21T14:36:34.082Z,9.20
2019-02-21T14:39:05.273Z,9.90
2019-02-21T14:41:37.053Z,10.67
2019-02-21T14:44:07.836Z,9.80
2019-02-21T14:46:38.615Z,11.30
2019-02-21T14:49:09.381Z,10.53
2019-02-21T14:51:40.138Z,12.03
2019-02-21T14:54:10.902Z,11.50
2019-02-21T14:56:41.680Z,11.13
2019-02-21T14:59:12.454Z,11.50
2019-02-21T15:01:43.238Z,12.40
2019-02-21T15:04:13.985Z,10.93
2019-02-21T15:06:44.757Z,11.67
2019-02-21T15:09:15.521Z,12.63
2019-02-21T15:11:46.289Z,12.37
2019-02-21T15:14:17.061Z,11.67
2019-02-21T15:16:47.820Z,12.27
2019-02-21T15:19:18.616Z,11.60
2019-02-21T15:21:49.377Z,10.63
2019-02-21T15:24:20.382Z,11.80
2019-02-21T15:26:51.148Z,12.20
2019-02-21T15:29:21.936Z,12.20
2019-02-21T15:31:52.686Z,10.63
2019-02-21T15:34:23.442Z,11.23
2019-02-21T15:36:54.215Z,11.07
2019-02-21T15:39:24.993Z,11.50
2019-02-21T15:41:55.765Z,10.00
2019-02-21T15:44:26.527Z,11.00
2019-02-21T15:46:57.294Z,10.47
2019-02-21T15:49:28.059Z,11.87
2019-02-21T15:51:58.888Z,10.50
2019-02-21T15:54:29.584Z,11.20
2019-02-21T15:57:00.370Z,11.20
2019-02-21T15:59:31.134Z,11.30
2019-02-21T16:02:02.020Z,11.37
2019-02-21T16:04:35.294Z,11.63
2019-02-21T16:07:05.434Z,12.47
2019-02-21T16:09:36.190Z,12.40
2019-02-21T16:12:07.323Z,12.17
2019-02-21T16:14:38.243Z,12.70
2019-02-21T16:17:09.016Z,13.70
2019-02-21T16:19:39.762Z,13.03
2019-02-21T16:22:10.531Z,13.70
2019-02-21T16:24:43.704Z,12.43
2019-02-21T16:27:13.972Z,12.83
2019-02-21T16:29:44.770Z,14.27
2019-02-21T16:32:15.498Z,13.60
2019-02-21T16:34:46.252Z,12.90
2019-02-21T16:37:17.026Z,13.07
2019-02-21T16:39:47.795Z,13.03
2019-02-21T16:42:18.576Z,12.90
2019-02-21T16:44:49.338Z,12.53
2019-02-21T16:47:20.114Z,12.60
2019-02-21T16:49:50.882Z,14.20
2019-02-21T16:52:21.653Z,13.33
2019-02-21T16:54:52.432Z,13.10
2019-02-21T16:57:23.223Z,12.80
2019-02-21T16:59:53.993Z,11.83
2019-02-21T17:02:24.768Z,13.33
2019-02-21T17:04:55.886Z,13.17
2019-02-21T17:07:26.827Z,11.90
2019-02-21T17:09:57.590Z,13.20
2019-02-21T17:12:28.367Z,12.23
2019-02-21T17:14:59.129Z,12.67
2019-02-21T17:17:29.900Z,12.47
2019-02-21T17:20:00.691Z,12.10
2019-02-21T17:22:31.463Z,12.23
2019-02-21T17:25:02.920Z,11.80
2019-02-21T17:27:33.706Z,12.13
2019-02-21T17:30:13.351Z,12.23
2019-02-21T17:32:44.436Z,11.80
2019-02-21T17:35:15.204Z,13.00
2019-02-21T17:37:45.972Z,13.50
2019-02-21T17:40:20.945Z,12.73
2019-02-21T17:42:51.730Z,12.20
2019-02-21T17:45:22.504Z,12.77
2019-02-21T17:47:53.283Z,11.70
2019-02-21T17:50:24.039Z,12.27
2019-02-21T17:52:54.811Z,12.60
2019-02-21T17:55:25.587Z,12.60
2019-02-21T17:57:56.350Z,11.73
2019-02-21T18:00:31.796Z,12.40
2019-02-21T18:03:02.783Z,32.23
2019-02-21T18:05:33.547Z,26.37
2019-02-21T18:08:04.335Z,22.00
2019-02-21T18:10:35.083Z,18.70
2019-02-21T18:13:05.852Z,22.60
2019-02-21T18:15:36.627Z,18.70
2019-02-21T18:18:07.396Z,27.20
2019-02-21T18:20:38.149Z,19.50
2019-02-21T18:23:08.922Z,15.10
2019-02-21T18:25:46.146Z,14.57
2019-02-21T18:28:16.935Z,14.03
2019-02-21T18:30:47.702Z,13.10
2019-02-21T18:33:18.483Z,13.50
2019-02-21T18:35:49.241Z,13.07
2019-02-21T18:38:20.020Z,13.30
2019-02-21T18:40:50.885Z,13.43
2019-02-21T18:43:21.851Z,12.83
2019-02-21T18:45:52.675Z,12.90
2019-02-21T18:48:23.444Z,13.30
2019-02-21T18:50:54.240Z,14.57
2019-02-21T18:53:25.307Z,16.20
2019-02-21T18:55:56.116Z,16.27
2019-02-21T18:58:26.890Z,13.87
2019-02-21T19:00:57.672Z,12.93
2019-02-21T19:03:28.442Z,14.87
2019-02-21T19:05:59.201Z,13.90
2019-02-21T19:08:29.969Z,15.00
2019-02-21T19:11:00.840Z,14.93
2019-02-21T19:13:31.617Z,14.13
2019-02-21T19:16:02.373Z,13.93
2019-02-21T19:18:33.139Z,14.33
2019-02-21T19:21:04.001Z,13.27
2019-02-21T19:23:34.770Z,15.10
2019-02-21T19:26:05.544Z,13.60
2019-02-21T19:28:36.315Z,15.90
2019-02-21T19:31:09.876Z,15.60
2019-02-21T19:33:40.765Z,15.85
2019-02-21T19:36:11.733Z,14.43
2019-02-21T19:38:42.594Z,14.93
2019-02-21T19:41:13.455Z,14.43
2019-02-21T19:43:44.275Z,13.73
2019-02-21T19:46:15.036Z,16.50
2019-02-21T19:48:45.794Z,14.60
2019-02-21T19:51:16.565Z,14.30
2019-02-21T19:53:47.427Z,15.47
2019-02-21T19:56:18.209Z,14.30
2019-02-21T19:58:48.968Z,14.20
2019-02-21T20:01:19.766Z,15.90
2019-02-21T20:03:50.519Z,14.53
2019-02-21T20:06:21.285Z,17.87
2019-02-21T20:08:52.050Z,14.87
2019-02-21T20:11:22.920Z,16.67
2019-02-21T20:13:53.692Z,14.67
2019-02-21T20:16:24.455Z,14.80
2019-02-21T20:18:55.210Z,12.50
2019-02-21T20:21:26.082Z,15.13
2019-02-21T20:23:56.843Z,15.10
2019-02-21T20:26:27.606Z,14.70
2019-02-21T20:28:58.363Z,13.77
2019-02-21T20:31:29.179Z,15.07
2019-02-21T20:33:59.888Z,14.00
2019-02-21T20:36:30.770Z,16.20
2019-02-21T20:39:01.735Z,15.60
2019-02-21T20:41:32.615Z,15.83
2019-02-21T20:44:03.377Z,16.13
2019-02-21T20:46:34.243Z,13.23
2019-02-21T20:49:04.994Z,14.40
2019-02-21T20:51:35.768Z,15.10
2019-02-21T20:54:06.529Z,14.43
2019-02-21T20:56:37.306Z,13.03
2019-02-21T20:59:08.076Z,13.80
2019-02-21T21:01:38.848Z,16.10
2019-02-21T21:04:09.705Z,14.97
2019-02-21T21:06:40.482Z,15.00
2019-02-21T21:09:11.250Z,15.07
2019-02-21T21:11:42.104Z,16.20
2019-02-21T21:14:12.874Z,14.17
2019-02-21T21:16:43.645Z,16.27
2019-02-21T21:19:14.395Z,14.00
2019-02-21T21:21:45.198Z,14.90
2019-02-21T21:24:15.946Z,15.90
2019-02-21T21:26:47.024Z,15.53
2019-02-21T21:29:17.786Z,15.90
2019-02-21T21:31:48.560Z,15.30
2019-02-21T21:34:19.326Z,15.03
2019-02-21T21:36:50.137Z,16.07
2019-02-21T21:39:20.892Z,13.90
2019-02-21T21:41:51.804Z,14.40
2019-02-21T21:44:22.573Z,16.10
2019-02-21T21:46:53.352Z,15.20
2019-02-21T21:49:24.109Z,15.67
2019-02-21T21:51:54.875Z,14.90
2019-02-21T21:54:25.637Z,15.47
2019-02-21T21:56:56.420Z,15.27
2019-02-21T21:59:27.210Z,14.53
2019-02-21T22:01:57.975Z,15.37
2019-02-21T22:04:28.757Z,14.80
2019-02-21T22:06:59.527Z,15.80
2019-02-21T22:09:30.291Z,15.33
2019-02-21T22:12:01.049Z,15.93
2019-02-21T22:14:31.816Z,15.90
2019-02-21T22:17:02.662Z,14.37
2019-02-21T22:19:33.447Z,15.27
2019-02-21T22:22:04.217Z,15.00
2019-02-21T22:24:34.972Z,15.83
2019-02-21T22:27:05.756Z,15.60
2019-02-21T22:29:36.506Z,15.03
2019-02-21T22:32:07.279Z,15.07
2019-02-21T22:34:38.032Z,14.53
2019-02-21T22:37:08.826Z,13.90
2019-02-21T22:39:39.581Z,13.80
2019-02-21T22:42:10.403Z,14.40
2019-02-21T22:44:41.114Z,15.60
2019-02-21T22:47:11.885Z,15.03
2019-02-21T22:49:42.663Z,16.90
2019-02-21T22:52:13.432Z,14.90
2019-02-21T22:54:44.199Z,14.60
2019-02-21T22:57:14.969Z,16.37
2019-02-21T22:59:45.835Z,14.73
2019-02-21T23:02:17.313Z,13.70
2019-02-21T23:04:51.915Z,17.23
2019-02-21T23:07:26.488Z,13.95
2019-02-21T23:09:57.259Z,16.15
2019-02-21T23:12:28.032Z,15.57
2019-02-21T23:14:58.794Z,17.10
2019-02-21T23:17:29.575Z,16.20
2019-02-21T23:20:00.380Z,16.30
2019-02-21T23:22:31.109Z,17.00
2019-02-21T23:25:03.057Z,16.37
2019-02-21T23:27:33.839Z,17.50
2019-02-21T23:30:07.695Z,17.73
2019-02-21T23:32:38.485Z,16.65
2019-02-21T23:35:11.142Z,17.97
2019-02-21T23:37:41.926Z,17.98
2019-02-21T23:40:12.686Z,16.10
2019-02-21T23:42:43.464Z,17.13
2019-02-21T23:45:14.221Z,16.17
2019-02-21T23:47:49.660Z,17.50
2019-02-21T23:50:17.651Z,16.62
2019-02-21T23:52:48.433Z,16.33
2019-02-21T23:55:19.194Z,16.00
2019-02-21T23:57:50.476Z,14.50
